H.b. 1 — WDC2454 — position and weather

sailwx.info

Track history (hours):
 
Tides and Currents Weather Stations Pressure Air Temp Water Temp Dewpoint Dewpoint Depression Visibility Wind Speed Wind Dir Waves Ship Positions

H.b. 1

Owner: Florida Marine, LLC, Mandeville, LA. More information available from US FCC via Universal Licensing System and Coast Guard Vessel Documentation Center.

Last reported at 2018-Feb-25 07:54 UTC. Time now 2018-Feb-25 08:09 UTC.
Position N 29°45' W 095°06'.

Length 23 m; draft 2.9 m.

Type: Other ship. MMSI: 366993420.

Date/timePositionNaut miles runAvg speedWind from/ knotsBaromVisibWave heightAir tempDewpointWater temp
2018-Feb-25 07:54N 29°45' W 095°06'1 0.0
2018-Feb-23 08:44N 29°46' W 095°06'0 0.0
2018-Feb-23 04:32N 29°46' W 095°06'  
2018-Feb-20 20:42N 29°44' W 095°01'0 0.0
2018-Feb-20 01:31N 29°44' W 095°01'0 4.6
2018-Feb-20 01:28N 29°44' W 095°02'0 0.0
2018-Feb-19 19:42N 29°44' W 095°02'4 0.5
2018-Feb-19 10:11N 29°46' W 095°06'1 1.2
2018-Feb-19 09:03N 29°46' W 095°05'0 3.0
2018-Feb-19 08:59N 29°46' W 095°05'1 2.7
2018-Feb-19 08:30N 29°45' W 095°04'2 3.3
2018-Feb-19 08:00N 29°44' W 095°03'1 1.5
2018-Feb-19 07:14N 29°44' W 095°01'0 0.0
2018-Feb-19 06:20N 29°44' W 095°01'0 0.0
2018-Feb-19 05:50N 29°44' W 095°01'0 0.0
2018-Feb-19 05:26N 29°44' W 095°01'0 0.1
2018-Feb-19 02:43N 29°44' W 095°02'0 0.0
2018-Feb-18 01:07N 29°44' W 095°02'1 6.6
2018-Feb-18 00:59N 29°44' W 095°03'1 0.0
2018-Feb-16 22:24N 29°44' W 095°02'  
Track history (hours):
 
Tides and Currents Weather Stations Pressure Air Temp Water Temp Dewpoint Dewpoint Depression Visibility Wind Speed Wind Dir Waves Ship Positions

H.b. 1

Owner: Florida Marine, LLC, Mandeville, LA. More information available from US FCC via Universal Licensing System and Coast Guard Vessel Documentation Center.

Last reported at 2018-Feb-25 07:54 UTC. Time now 2018-Feb-25 08:09 UTC.
Position N 29°45' W 095°06'.

Length 23 m; draft 2.9 m.

Type: Other ship. MMSI: 366993420.

Date/timePositionNaut miles runAvg speedWind from/ knotsBaromVisibWave heightAir tempDewpointWater temp
2018-Feb-25 07:54N 29°45' W 095°06'1 0.0
2018-Feb-23 08:44N 29°46' W 095°06'0 0.0
2018-Feb-23 04:32N 29°46' W 095°06'  
2018-Feb-20 20:42N 29°44' W 095°01'0 0.0
2018-Feb-20 01:31N 29°44' W 095°01'0 4.6
2018-Feb-20 01:28N 29°44' W 095°02'0 0.0
2018-Feb-19 19:42N 29°44' W 095°02'4 0.5
2018-Feb-19 10:11N 29°46' W 095°06'1 1.2
2018-Feb-19 09:03N 29°46' W 095°05'0 3.0
2018-Feb-19 08:59N 29°46' W 095°05'1 2.7
2018-Feb-19 08:30N 29°45' W 095°04'2 3.3
2018-Feb-19 08:00N 29°44' W 095°03'1 1.5
2018-Feb-19 07:14N 29°44' W 095°01'0 0.0
2018-Feb-19 06:20N 29°44' W 095°01'0 0.0
2018-Feb-19 05:50N 29°44' W 095°01'0 0.0
2018-Feb-19 05:26N 29°44' W 095°01'0 0.1
2018-Feb-19 02:43N 29°44' W 095°02'0 0.0
2018-Feb-18 01:07N 29°44' W 095°02'1 6.6
2018-Feb-18 00:59N 29°44' W 095°03'1 0.0
2018-Feb-16 22:24N 29°44' W 095°02'  

Dump ship's entire track history